sensor_id;sensor_type;location;lat;lon;timestamp;P1;durP1;ratioP1;P2;durP2;ratioP2
69856;SDS011;57147;53.582;10.112;2023-02-12T00:00:32;16.30;;;6.80;;
69856;SDS011;57147;53.582;10.112;2023-02-12T00:05:35;14.40;;;6.68;;
69856;SDS011;57147;53.582;10.112;2023-02-12T00:10:39;13.23;;;5.22;;
69856;SDS011;57147;53.582;10.112;2023-02-12T00:15:40;11.55;;;4.72;;
69856;SDS011;57147;53.582;10.112;2023-02-12T00:20:44;11.57;;;6.90;;
69856;SDS011;57147;53.582;10.112;2023-02-12T00:25:45;10.25;;;4.70;;
69856;SDS011;57147;53.582;10.112;2023-02-12T00:30:45;9.75;;;4.20;;
69856;SDS011;57147;53.582;10.112;2023-02-12T00:35:56;10.15;;;5.70;;
69856;SDS011;57147;53.582;10.112;2023-02-12T00:40:57;10.95;;;5.05;;
69856;SDS011;57147;53.582;10.112;2023-02-12T00:45:57;10.50;;;5.22;;
69856;SDS011;57147;53.582;10.112;2023-02-12T00:51:01;10.68;;;5.15;;
69856;SDS011;57147;53.582;10.112;2023-02-12T00:56:02;9.00;;;4.53;;
69856;SDS011;57147;53.582;10.112;2023-02-12T01:01:03;9.40;;;3.67;;
69856;SDS011;57147;53.582;10.112;2023-02-12T01:06:06;6.95;;;3.00;;
69856;SDS011;57147;53.582;10.112;2023-02-12T01:11:10;8.98;;;3.97;;
69856;SDS011;57147;53.582;10.112;2023-02-12T01:16:13;9.20;;;3.75;;
69856;SDS011;57147;53.582;10.112;2023-02-12T01:21:19;9.77;;;4.57;;
69856;SDS011;57147;53.582;10.112;2023-02-12T01:26:21;9.02;;;3.97;;
69856;SDS011;57147;53.582;10.112;2023-02-12T01:31:23;9.38;;;4.30;;
69856;SDS011;57147;53.582;10.112;2023-02-12T01:36:29;9.57;;;5.18;;
69856;SDS011;57147;53.582;10.112;2023-02-12T01:41:31;9.25;;;4.75;;
69856;SDS011;57147;53.582;10.112;2023-02-12T01:46:33;8.75;;;4.53;;
69856;SDS011;57147;53.582;10.112;2023-02-12T01:51:37;8.25;;;5.47;;
69856;SDS011;57147;53.582;10.112;2023-02-12T01:56:39;8.27;;;4.63;;
69856;SDS011;57147;53.582;10.112;2023-02-12T02:01:41;7.97;;;4.63;;
69856;SDS011;57147;53.582;10.112;2023-02-12T02:06:46;8.68;;;4.63;;
69856;SDS011;57147;53.582;10.112;2023-02-12T02:11:49;9.88;;;5.28;;
69856;SDS011;57147;53.582;10.112;2023-02-12T02:16:52;8.07;;;4.50;;
69856;SDS011;57147;53.582;10.112;2023-02-12T02:22:05;7.28;;;4.38;;
69856;SDS011;57147;53.582;10.112;2023-02-12T02:27:17;9.60;;;4.45;;
69856;SDS011;57147;53.582;10.112;2023-02-12T02:32:26;8.30;;;3.40;;
69856;SDS011;57147;53.582;10.112;2023-02-12T02:37:31;6.00;;;3.20;;
69856;SDS011;57147;53.582;10.112;2023-02-12T02:42:36;7.63;;;3.10;;
69856;SDS011;57147;53.582;10.112;2023-02-12T02:47:43;7.28;;;3.55;;
69856;SDS011;57147;53.582;10.112;2023-02-12T02:52:47;7.35;;;4.53;;
69856;SDS011;57147;53.582;10.112;2023-02-12T02:57:53;4.93;;;2.67;;
69856;SDS011;57147;53.582;10.112;2023-02-12T03:03:01;7.72;;;3.63;;
69856;SDS011;57147;53.582;10.112;2023-02-12T03:08:08;7.65;;;4.78;;
69856;SDS011;57147;53.582;10.112;2023-02-12T03:13:15;6.78;;;3.58;;
69856;SDS011;57147;53.582;10.112;2023-02-12T03:18:22;6.70;;;3.08;;
69856;SDS011;57147;53.582;10.112;2023-02-12T03:23:26;7.75;;;3.63;;
69856;SDS011;57147;53.582;10.112;2023-02-12T03:28:32;8.50;;;4.82;;
69856;SDS011;57147;53.582;10.112;2023-02-12T03:33:38;9.48;;;4.25;;
69856;SDS011;57147;53.582;10.112;2023-02-12T03:38:44;6.50;;;3.22;;
69856;SDS011;57147;53.582;10.112;2023-02-12T03:43:48;7.20;;;3.42;;
69856;SDS011;57147;53.582;10.112;2023-02-12T03:48:58;6.70;;;2.78;;
69856;SDS011;57147;53.582;10.112;2023-02-12T03:54:03;6.63;;;3.30;;
69856;SDS011;57147;53.582;10.112;2023-02-12T03:59:05;7.88;;;3.65;;
69856;SDS011;57147;53.582;10.112;2023-02-12T04:04:09;8.35;;;3.22;;
69856;SDS011;57147;53.582;10.112;2023-02-12T04:09:10;8.63;;;3.30;;
69856;SDS011;57147;53.582;10.112;2023-02-12T04:14:13;9.40;;;4.40;;
69856;SDS011;57147;53.582;10.112;2023-02-12T04:19:25;11.20;;;4.35;;
69856;SDS011;57147;53.582;10.112;2023-02-12T04:24:33;11.15;;;4.53;;
69856;SDS011;57147;53.582;10.112;2023-02-12T04:34:51;10.77;;;4.78;;
69856;SDS011;57147;53.582;10.112;2023-02-12T04:39:56;11.60;;;4.38;;
69856;SDS011;57147;53.582;10.112;2023-02-12T04:44:59;10.40;;;4.75;;
69856;SDS011;57147;53.582;10.112;2023-02-12T04:50:02;13.73;;;4.93;;
69856;SDS011;57147;53.582;10.112;2023-02-12T04:55:04;11.88;;;4.90;;
69856;SDS011;57147;53.582;10.112;2023-02-12T05:00:05;15.50;;;4.78;;
69856;SDS011;57147;53.582;10.112;2023-02-12T05:05:11;23.88;;;4.38;;
69856;SDS011;57147;53.582;10.112;2023-02-12T05:10:12;15.63;;;4.43;;
69856;SDS011;57147;53.582;10.112;2023-02-12T05:15:13;14.82;;;5.82;;
69856;SDS011;57147;53.582;10.112;2023-02-12T05:20:16;13.93;;;6.05;;
69856;SDS011;57147;53.582;10.112;2023-02-12T05:25:17;18.27;;;5.20;;
69856;SDS011;57147;53.582;10.112;2023-02-12T05:30:17;29.10;;;6.43;;
69856;SDS011;57147;53.582;10.112;2023-02-12T05:35:21;18.42;;;5.75;;
69856;SDS011;57147;53.582;10.112;2023-02-12T05:40:21;25.50;;;6.05;;
69856;SDS011;57147;53.582;10.112;2023-02-12T05:45:22;16.90;;;5.72;;
69856;SDS011;57147;53.582;10.112;2023-02-12T05:50:25;19.40;;;6.57;;
69856;SDS011;57147;53.582;10.112;2023-02-12T05:55:26;25.90;;;8.18;;
69856;SDS011;57147;53.582;10.112;2023-02-12T06:00:27;21.13;;;7.15;;
69856;SDS011;57147;53.582;10.112;2023-02-12T06:05:30;25.40;;;8.23;;
69856;SDS011;57147;53.582;10.112;2023-02-12T06:10:31;22.63;;;8.32;;
69856;SDS011;57147;53.582;10.112;2023-02-12T06:15:31;22.55;;;7.20;;
69856;SDS011;57147;53.582;10.112;2023-02-12T06:20:39;23.23;;;8.65;;
69856;SDS011;57147;53.582;10.112;2023-02-12T06:25:40;23.85;;;7.53;;
69856;SDS011;57147;53.582;10.112;2023-02-12T06:30:41;21.08;;;7.03;;
69856;SDS011;57147;53.582;10.112;2023-02-12T06:35:45;24.67;;;8.63;;
69856;SDS011;57147;53.582;10.112;2023-02-12T06:40:45;23.45;;;8.88;;
69856;SDS011;57147;53.582;10.112;2023-02-12T06:45:46;23.27;;;8.15;;
69856;SDS011;57147;53.582;10.112;2023-02-12T06:50:49;22.40;;;7.93;;
69856;SDS011;57147;53.582;10.112;2023-02-12T06:55:50;23.13;;;8.32;;
69856;SDS011;57147;53.582;10.112;2023-02-12T07:00:50;18.42;;;7.05;;
69856;SDS011;57147;53.582;10.112;2023-02-12T07:05:53;22.38;;;7.93;;
69856;SDS011;57147;53.582;10.112;2023-02-12T07:10:58;23.48;;;7.75;;
69856;SDS011;57147;53.582;10.112;2023-02-12T07:16:01;21.50;;;8.43;;
69856;SDS011;57147;53.582;10.112;2023-02-12T07:21:05;22.50;;;8.63;;
69856;SDS011;57147;53.582;10.112;2023-02-12T07:26:10;22.30;;;9.20;;
69856;SDS011;57147;53.582;10.112;2023-02-12T07:31:13;22.45;;;7.85;;
69856;SDS011;57147;53.582;10.112;2023-02-12T07:36:18;25.33;;;8.02;;
69856;SDS011;57147;53.582;10.112;2023-02-12T07:41:19;31.13;;;8.15;;
69856;SDS011;57147;53.582;10.112;2023-02-12T07:46:22;24.33;;;8.40;;
69856;SDS011;57147;53.582;10.112;2023-02-12T07:51:26;24.73;;;8.52;;
69856;SDS011;57147;53.582;10.112;2023-02-12T07:56:28;28.55;;;8.90;;
69856;SDS011;57147;53.582;10.112;2023-02-12T08:01:30;27.08;;;8.75;;
69856;SDS011;57147;53.582;10.112;2023-02-12T08:06:36;24.55;;;9.02;;
69856;SDS011;57147;53.582;10.112;2023-02-12T08:11:38;23.63;;;9.30;;
69856;SDS011;57147;53.582;10.112;2023-02-12T08:16:41;27.08;;;10.13;;
69856;SDS011;57147;53.582;10.112;2023-02-12T08:21:47;29.90;;;10.00;;
69856;SDS011;57147;53.582;10.112;2023-02-12T08:26:48;27.33;;;9.88;;
69856;SDS011;57147;53.582;10.112;2023-02-12T08:31:50;32.28;;;10.73;;
69856;SDS011;57147;53.582;10.112;2023-02-12T08:36:57;32.45;;;11.90;;
69856;SDS011;57147;53.582;10.112;2023-02-12T08:41:58;26.48;;;9.35;;
69856;SDS011;57147;53.582;10.112;2023-02-12T08:47:00;25.23;;;10.25;;
69856;SDS011;57147;53.582;10.112;2023-02-12T08:52:03;25.70;;;10.05;;
69856;SDS011;57147;53.582;10.112;2023-02-12T08:57:03;27.42;;;12.48;;
69856;SDS011;57147;53.582;10.112;2023-02-12T09:02:04;26.83;;;9.60;;
69856;SDS011;57147;53.582;10.112;2023-02-12T09:07:07;18.80;;;8.05;;
69856;SDS011;57147;53.582;10.112;2023-02-12T09:12:08;25.60;;;11.27;;
69856;SDS011;57147;53.582;10.112;2023-02-12T09:17:08;25.15;;;11.80;;
69856;SDS011;57147;53.582;10.112;2023-02-12T09:22:12;23.88;;;9.48;;
69856;SDS011;57147;53.582;10.112;2023-02-12T09:27:12;23.98;;;9.90;;
69856;SDS011;57147;53.582;10.112;2023-02-12T09:32:13;25.02;;;10.18;;
69856;SDS011;57147;53.582;10.112;2023-02-12T09:37:16;24.95;;;10.30;;
69856;SDS011;57147;53.582;10.112;2023-02-12T09:42:22;28.40;;;10.63;;
69856;SDS011;57147;53.582;10.112;2023-02-12T09:47:32;25.33;;;11.57;;
69856;SDS011;57147;53.582;10.112;2023-02-12T09:52:41;31.48;;;14.02;;
69856;SDS011;57147;53.582;10.112;2023-02-12T09:57:42;26.25;;;12.13;;
69856;SDS011;57147;53.582;10.112;2023-02-12T10:02:43;23.42;;;10.32;;
69856;SDS011;57147;53.582;10.112;2023-02-12T10:07:59;24.90;;;11.20;;
69856;SDS011;57147;53.582;10.112;2023-02-12T10:13:07;26.52;;;11.27;;
69856;SDS011;57147;53.582;10.112;2023-02-12T10:18:34;31.48;;;15.57;;
69856;SDS011;57147;53.582;10.112;2023-02-12T10:23:49;23.13;;;11.00;;
69856;SDS011;57147;53.582;10.112;2023-02-12T10:29:10;27.27;;;13.05;;
69856;SDS011;57147;53.582;10.112;2023-02-12T10:34:14;25.98;;;12.10;;
69856;SDS011;57147;53.582;10.112;2023-02-12T10:39:21;26.17;;;13.30;;
69856;SDS011;57147;53.582;10.112;2023-02-12T10:44:24;32.35;;;16.88;;
69856;SDS011;57147;53.582;10.112;2023-02-12T10:49:25;29.27;;;13.95;;
69856;SDS011;57147;53.582;10.112;2023-02-12T10:54:33;28.85;;;13.43;;
69856;SDS011;57147;53.582;10.112;2023-02-12T10:59:35;27.98;;;13.02;;
69856;SDS011;57147;53.582;10.112;2023-02-12T11:04:36;33.55;;;14.40;;
69856;SDS011;57147;53.582;10.112;2023-02-12T11:09:40;32.20;;;14.95;;
69856;SDS011;57147;53.582;10.112;2023-02-12T11:14:46;27.10;;;12.95;;
69856;SDS011;57147;53.582;10.112;2023-02-12T11:19:59;28.05;;;13.10;;
69856;SDS011;57147;53.582;10.112;2023-02-12T11:25:09;27.40;;;12.13;;
69856;SDS011;57147;53.582;10.112;2023-02-12T11:30:15;21.95;;;11.48;;
69856;SDS011;57147;53.582;10.112;2023-02-12T11:35:18;21.05;;;11.50;;
69856;SDS011;57147;53.582;10.112;2023-02-12T11:40:23;23.05;;;11.48;;
69856;SDS011;57147;53.582;10.112;2023-02-12T11:45:26;18.88;;;9.85;;
69856;SDS011;57147;53.582;10.112;2023-02-12T11:50:30;17.92;;;9.27;;
69856;SDS011;57147;53.582;10.112;2023-02-12T11:55:35;22.15;;;12.43;;
69856;SDS011;57147;53.582;10.112;2023-02-12T12:00:40;20.83;;;10.10;;
69856;SDS011;57147;53.582;10.112;2023-02-12T12:05:46;23.15;;;9.82;;
69856;SDS011;57147;53.582;10.112;2023-02-12T12:10:53;23.48;;;11.25;;
69856;SDS011;57147;53.582;10.112;2023-02-12T12:15:59;25.35;;;12.57;;
69856;SDS011;57147;53.582;10.112;2023-02-12T12:21:08;21.27;;;9.60;;
69856;SDS011;57147;53.582;10.112;2023-02-12T12:26:19;18.30;;;8.68;;
69856;SDS011;57147;53.582;10.112;2023-02-12T12:31:24;17.75;;;8.93;;
69856;SDS011;57147;53.582;10.112;2023-02-12T12:36:38;15.80;;;7.47;;
69856;SDS011;57147;53.582;10.112;2023-02-12T12:47:27;18.33;;;9.90;;
69856;SDS011;57147;53.582;10.112;2023-02-12T12:52:48;13.70;;;7.43;;
69856;SDS011;57147;53.582;10.112;2023-02-12T12:58:02;13.35;;;6.78;;
69856;SDS011;57147;53.582;10.112;2023-02-12T13:08:56;12.65;;;8.70;;
69856;SDS011;57147;53.582;10.112;2023-02-12T13:14:22;13.93;;;6.35;;
69856;SDS011;57147;53.582;10.112;2023-02-12T13:19:32;9.73;;;5.50;;
69856;SDS011;57147;53.582;10.112;2023-02-12T13:24:41;11.52;;;5.32;;
69856;SDS011;57147;53.582;10.112;2023-02-12T13:29:47;11.50;;;7.00;;
69856;SDS011;57147;53.582;10.112;2023-02-12T13:34:50;13.93;;;7.15;;
69856;SDS011;57147;53.582;10.112;2023-02-12T13:39:53;8.13;;;4.38;;
69856;SDS011;57147;53.582;10.112;2023-02-12T13:45:05;8.10;;;4.40;;
69856;SDS011;57147;53.582;10.112;2023-02-12T13:50:26;7.60;;;4.10;;
69856;SDS011;57147;53.582;10.112;2023-02-12T13:55:36;7.88;;;5.47;;
69856;SDS011;57147;53.582;10.112;2023-02-12T14:00:58;8.48;;;5.72;;
69856;SDS011;57147;53.582;10.112;2023-02-12T14:06:07;6.15;;;3.95;;
69856;SDS011;57147;53.582;10.112;2023-02-12T14:11:10;4.65;;;3.13;;
69856;SDS011;57147;53.582;10.112;2023-02-12T14:21:39;6.30;;;5.22;;
69856;SDS011;57147;53.582;10.112;2023-02-12T14:26:40;6.65;;;4.47;;
69856;SDS011;57147;53.582;10.112;2023-02-12T14:31:43;6.07;;;4.40;;
69856;SDS011;57147;53.582;10.112;2023-02-12T14:36:44;7.30;;;4.43;;
69856;SDS011;57147;53.582;10.112;2023-02-12T14:41:45;10.38;;;5.50;;
69856;SDS011;57147;53.582;10.112;2023-02-12T14:46:48;8.27;;;5.90;;
69856;SDS011;57147;53.582;10.112;2023-02-12T14:51:53;9.10;;;4.90;;
69856;SDS011;57147;53.582;10.112;2023-02-12T14:56:59;7.68;;;4.47;;
69856;SDS011;57147;53.582;10.112;2023-02-12T15:02:07;8.07;;;4.88;;
69856;SDS011;57147;53.582;10.112;2023-02-12T15:07:16;7.60;;;4.50;;
69856;SDS011;57147;53.582;10.112;2023-02-12T15:12:24;8.50;;;5.35;;
69856;SDS011;57147;53.582;10.112;2023-02-12T15:17:34;7.78;;;4.22;;
69856;SDS011;57147;53.582;10.112;2023-02-12T15:22:39;9.07;;;4.90;;
69856;SDS011;57147;53.582;10.112;2023-02-12T15:27:40;11.18;;;6.07;;
69856;SDS011;57147;53.582;10.112;2023-02-12T15:32:45;8.73;;;5.30;;
69856;SDS011;57147;53.582;10.112;2023-02-12T15:37:46;10.27;;;5.38;;
69856;SDS011;57147;53.582;10.112;2023-02-12T15:42:52;10.10;;;6.85;;
69856;SDS011;57147;53.582;10.112;2023-02-12T15:47:58;6.35;;;3.22;;
69856;SDS011;57147;53.582;10.112;2023-02-12T15:53:01;7.22;;;4.82;;
69856;SDS011;57147;53.582;10.112;2023-02-12T15:58:02;5.25;;;3.03;;
69856;SDS011;57147;53.582;10.112;2023-02-12T16:03:14;6.63;;;3.45;;
69856;SDS011;57147;53.582;10.112;2023-02-12T16:08:19;3.40;;;2.85;;
69856;SDS011;57147;53.582;10.112;2023-02-12T16:13:23;5.85;;;3.40;;
69856;SDS011;57147;53.582;10.112;2023-02-12T16:18:31;4.72;;;2.65;;
69856;SDS011;57147;53.582;10.112;2023-02-12T16:23:32;4.95;;;2.95;;
69856;SDS011;57147;53.582;10.112;2023-02-12T16:28:34;11.68;;;9.70;;
69856;SDS011;57147;53.582;10.112;2023-02-12T16:33:43;6.13;;;5.03;;
69856;SDS011;57147;53.582;10.112;2023-02-12T16:38:46;6.95;;;5.30;;
69856;SDS011;57147;53.582;10.112;2023-02-12T16:43:48;6.40;;;4.68;;
69856;SDS011;57147;53.582;10.112;2023-02-12T16:48:52;7.03;;;6.35;;
69856;SDS011;57147;53.582;10.112;2023-02-12T16:53:55;7.00;;;6.45;;
69856;SDS011;57147;53.582;10.112;2023-02-12T16:58:58;9.00;;;6.13;;
69856;SDS011;57147;53.582;10.112;2023-02-12T17:04:03;6.75;;;6.07;;
69856;SDS011;57147;53.582;10.112;2023-02-12T17:09:06;5.65;;;3.88;;
69856;SDS011;57147;53.582;10.112;2023-02-12T17:14:07;9.00;;;8.20;;
69856;SDS011;57147;53.582;10.112;2023-02-12T17:19:12;6.28;;;4.35;;
69856;SDS011;57147;53.582;10.112;2023-02-12T17:24:13;6.82;;;5.10;;
69856;SDS011;57147;53.582;10.112;2023-02-12T17:29:17;7.85;;;7.05;;
69856;SDS011;57147;53.582;10.112;2023-02-12T17:34:21;7.97;;;6.38;;
69856;SDS011;57147;53.582;10.112;2023-02-12T17:39:22;7.22;;;5.22;;
69856;SDS011;57147;53.582;10.112;2023-02-12T17:44:23;7.30;;;6.47;;
69856;SDS011;57147;53.582;10.112;2023-02-12T17:49:26;9.52;;;6.25;;
69856;SDS011;57147;53.582;10.112;2023-02-12T17:54:27;10.77;;;9.68;;
69856;SDS011;57147;53.582;10.112;2023-02-12T17:59:27;9.63;;;7.05;;
69856;SDS011;57147;53.582;10.112;2023-02-12T18:04:32;9.45;;;5.18;;
69856;SDS011;57147;53.582;10.112;2023-02-12T18:09:34;11.20;;;6.55;;
69856;SDS011;57147;53.582;10.112;2023-02-12T18:14:35;10.00;;;7.07;;
69856;SDS011;57147;53.582;10.112;2023-02-12T18:19:39;10.32;;;9.32;;
69856;SDS011;57147;53.582;10.112;2023-02-12T18:24:39;10.65;;;9.55;;
69856;SDS011;57147;53.582;10.112;2023-02-12T18:29:40;8.65;;;6.78;;
69856;SDS011;57147;53.582;10.112;2023-02-12T18:34:43;8.70;;;5.60;;
69856;SDS011;57147;53.582;10.112;2023-02-12T18:39:44;9.68;;;7.22;;
69856;SDS011;57147;53.582;10.112;2023-02-12T18:44:45;10.18;;;7.43;;
69856;SDS011;57147;53.582;10.112;2023-02-12T18:49:48;10.48;;;8.63;;
69856;SDS011;57147;53.582;10.112;2023-02-12T18:54:49;9.52;;;7.00;;
69856;SDS011;57147;53.582;10.112;2023-02-12T18:59:49;10.25;;;7.60;;
69856;SDS011;57147;53.582;10.112;2023-02-12T19:04:53;9.45;;;7.15;;
69856;SDS011;57147;53.582;10.112;2023-02-12T19:09:54;9.20;;;7.68;;
69856;SDS011;57147;53.582;10.112;2023-02-12T19:15:12;11.65;;;9.48;;
69856;SDS011;57147;53.582;10.112;2023-02-12T19:20:16;13.68;;;12.27;;
69856;SDS011;57147;53.582;10.112;2023-02-12T19:25:17;10.88;;;8.18;;
69856;SDS011;57147;53.582;10.112;2023-02-12T19:30:18;12.18;;;9.52;;
69856;SDS011;57147;53.582;10.112;2023-02-12T19:35:21;12.18;;;8.13;;
69856;SDS011;57147;53.582;10.112;2023-02-12T19:40:21;12.27;;;9.88;;
69856;SDS011;57147;53.582;10.112;2023-02-12T19:45:22;13.20;;;11.45;;
69856;SDS011;57147;53.582;10.112;2023-02-12T19:50:25;12.40;;;8.85;;
69856;SDS011;57147;53.582;10.112;2023-02-12T19:55:26;14.98;;;13.38;;
69856;SDS011;57147;53.582;10.112;2023-02-12T20:00:26;16.63;;;10.48;;
69856;SDS011;57147;53.582;10.112;2023-02-12T20:05:30;20.88;;;14.35;;
69856;SDS011;57147;53.582;10.112;2023-02-12T20:10:30;17.10;;;11.88;;
69856;SDS011;57147;53.582;10.112;2023-02-12T20:15:32;17.38;;;15.18;;
69856;SDS011;57147;53.582;10.112;2023-02-12T20:20:35;16.30;;;13.10;;
69856;SDS011;57147;53.582;10.112;2023-02-12T20:30:42;21.00;;;17.10;;
69856;SDS011;57147;53.582;10.112;2023-02-12T20:35:45;18.27;;;12.27;;
69856;SDS011;57147;53.582;10.112;2023-02-12T20:40:54;17.08;;;11.20;;
69856;SDS011;57147;53.582;10.112;2023-02-12T20:45:54;20.25;;;17.08;;
69856;SDS011;57147;53.582;10.112;2023-02-12T20:50:57;22.65;;;16.45;;
69856;SDS011;57147;53.582;10.112;2023-02-12T20:56:02;20.48;;;13.85;;
69856;SDS011;57147;53.582;10.112;2023-02-12T21:01:04;20.83;;;14.63;;
69856;SDS011;57147;53.582;10.112;2023-02-12T21:06:08;19.70;;;13.55;;
69856;SDS011;57147;53.582;10.112;2023-02-12T21:11:11;21.35;;;14.70;;
69856;SDS011;57147;53.582;10.112;2023-02-12T21:16:14;18.80;;;13.40;;
69856;SDS011;57147;53.582;10.112;2023-02-12T21:21:19;19.33;;;13.13;;
69856;SDS011;57147;53.582;10.112;2023-02-12T21:26:21;20.05;;;13.52;;
69856;SDS011;57147;53.582;10.112;2023-02-12T21:31:23;26.90;;;16.45;;
69856;SDS011;57147;53.582;10.112;2023-02-12T21:36:28;18.52;;;13.55;;
69856;SDS011;57147;53.582;10.112;2023-02-12T21:41:31;20.40;;;14.48;;
69856;SDS011;57147;53.582;10.112;2023-02-12T21:46:32;26.98;;;18.75;;
69856;SDS011;57147;53.582;10.112;2023-02-12T21:51:38;16.45;;;11.30;;
69856;SDS011;57147;53.582;10.112;2023-02-12T21:56:42;15.85;;;11.65;;
69856;SDS011;57147;53.582;10.112;2023-02-12T22:01:45;17.08;;;12.43;;
69856;SDS011;57147;53.582;10.112;2023-02-12T22:06:49;19.42;;;13.45;;
69856;SDS011;57147;53.582;10.112;2023-02-12T22:11:50;17.60;;;11.38;;
69856;SDS011;57147;53.582;10.112;2023-02-12T22:16:51;17.77;;;12.38;;
69856;SDS011;57147;53.582;10.112;2023-02-12T22:21:54;23.40;;;16.45;;
69856;SDS011;57147;53.582;10.112;2023-02-12T22:26:55;18.55;;;12.02;;
69856;SDS011;57147;53.582;10.112;2023-02-12T22:31:55;17.42;;;11.15;;
69856;SDS011;57147;53.582;10.112;2023-02-12T22:37:01;18.58;;;15.13;;
69856;SDS011;57147;53.582;10.112;2023-02-12T22:42:04;16.83;;;9.85;;
69856;SDS011;57147;53.582;10.112;2023-02-12T22:47:32;15.13;;;10.27;;
69856;SDS011;57147;53.582;10.112;2023-02-12T22:52:35;16.08;;;10.23;;
69856;SDS011;57147;53.582;10.112;2023-02-12T22:57:36;16.50;;;10.13;;
69856;SDS011;57147;53.582;10.112;2023-02-12T23:02:36;16.15;;;9.82;;
69856;SDS011;57147;53.582;10.112;2023-02-12T23:07:39;15.45;;;8.90;;
69856;SDS011;57147;53.582;10.112;2023-02-12T23:12:40;20.23;;;12.10;;
69856;SDS011;57147;53.582;10.112;2023-02-12T23:17:41;17.42;;;10.88;;
69856;SDS011;57147;53.582;10.112;2023-02-12T23:22:44;16.85;;;10.13;;
69856;SDS011;57147;53.582;10.112;2023-02-12T23:33:16;22.42;;;13.20;;
69856;SDS011;57147;53.582;10.112;2023-02-12T23:38:20;17.63;;;10.63;;
69856;SDS011;57147;53.582;10.112;2023-02-12T23:43:21;16.25;;;13.10;;
69856;SDS011;57147;53.582;10.112;2023-02-12T23:48:21;16.40;;;10.55;;
69856;SDS011;57147;53.582;10.112;2023-02-12T23:53:24;17.85;;;11.93;;
69856;SDS011;57147;53.582;10.112;2023-02-12T23:58:25;19.88;;;11.90;;
